澳門, 澳門

2014年7月27日 03時13分 (GMT +0800)
Macau International (VMMC) 海拔 374 ft | 22.16 °N, 113.57 °E | Change Station

Current weather conditions updated 13 minutes ago

Mostly Cloudy
多雲
81 °F
感覺像 87 °F
9
風 變化 風 來自

今天比昨天 涼爽。 雷雨。。

今日
高 -- | 低 -- °F
--% 降水機率
昨天
高 -- | 低 -- °F
Precip. -- 英寸
5:55 AM 7:08 PM
殘月, 0% visible
氣壓 29.77 英寸
能見度 6.2 英里
多雲 少數 1000 ft
多雲時晴 1800 ft
多雲 4500 ft
高溫指數 87 °F
露點 77 °F
濕度 89%
降雨量 0.00 英寸
積雪深度 不適用。
紫外線 0 / 12
花粉 不適用。
空氣質素 不適用。
Flu Activity 不適用。
METAR VMMC 261900Z 09008KT 060V140 9999 FEW010 SCT018 BKN045 27/25 Q1008 RETS TEMPO 3000 -TSRA FEW008 SCT012CB

More Conditions Fewer Conditions

氣壓 29.77 英寸
能見度 6.2 英里
多雲 少數 1000 ft
多雲時晴 1800 ft
多雲 4500 ft
高溫指數 87 °F
露點 77 °F
濕度 89%
降雨量 0.00 英寸
積雪深度 不適用。
紫外線 0 / 12
花粉 不適用。
空氣質素 不適用。
Flu Activity 不適用。
METAR VMMC 261900Z 09008KT 060V140 9999 FEW010 SCT018 BKN045 27/25 Q1008 RETS TEMPO 3000 -TSRA FEW008 SCT012CB

More Conditions Fewer Conditions

10-Day Weather Forecast

Almanac

天文

Jul. 27, 2014 昇起 降落
實際時間 05:55 CST 19:08 CST
民用曙暮光 05:31 CST 19:33 CST
航海曙暮光 05:02 CST 20:01 CST
天文學微明 04:33 CST 20:31 CST
月亮 06:02 CST (7/27) 19:11 CST (7/27)
可見光的長度 14h 01m
白晝時間
13h 13m
Tomorrow will be 0m 52s shorter.
殘月, 0% of the Moon is Illuminated
7月 26
殘月
7月 26
8月 3
第一季
8月 10
滿月
8月 17
第四季

昨天之最

國家高溫 國家低溫

Community

WunderPhotos

Upload Photos

1,737,672 照片已上傳!

Nearby

積雪量

Not available.

地震活動

城市 距離 時間和日期
附近沒有最近發生的地震活動。
顯示的最小幅度是2.5。

沿海水溫

地點 溫度
無任何天氣監測站報告

附近的氣象站

氣象站位置 溫度 高溫指數 露點 濕度 Precip. 海拔 最近更新時間 類型
Tai O, Lantau Island, Hong Kong 79.9 °F 86 °F 78 °F 95% 東北  風  1.0 英里每小時 0.00 英寸 / hr 50 ft 3:10 AM CST 正常

Show More Stations Show Fewer Stations